Time;durP1;ratioP1;P1;durP2;ratioP2;P2;SDS_P1;SDS_P2;PMS_P1;PMS_P2;Temp;Humidity;BMP_temperature;BMP_pressure;BME280_temperature;BME280_humidity;BME280_pressure;Samples;Min_cycle;Max_cycle;Signal;HPM_P1;HPM_P2
2021/11/24 00:01:38;;;;;;;17.33;13.03;;;;;;;20.05;55.87;98292.56;4941252;29;20299;-84
2021/11/24 00:04:05;;;;;;;16.00;12.00;;;;;;;19.82;55.64;98249.78;4946194;29;20755;-84
2021/11/24 00:06:31;;;;;;;15.43;12.73;;;;;;;20.06;55.60;98284.09;4956323;28;20235;-86
2021/11/24 00:08:58;;;;;;;16.50;12.80;;;;;;;20.40;55.82;98342.75;4957503;28;20204;-85
2021/11/24 00:11:25;;;;;;;20.37;13.53;;;;;;;20.46;55.78;98350.69;4950715;29;20212;-85
2021/11/24 00:13:51;;;;;;;19.30;12.13;;;;;;;20.30;55.57;98323.56;4922747;29;20247;-84
2021/11/24 00:16:18;;;;;;;18.30;13.73;;;;;;;19.97;55.59;98268.38;4952471;29;20228;-85
2021/11/24 00:18:45;;;;;;;15.57;12.73;;;;;;;20.36;55.41;98331.50;4955463;28;20317;-86
2021/11/24 00:21:11;;;;;;;16.40;13.57;;;;;;;20.12;55.24;98286.94;4951955;28;20240;-83
2021/11/24 00:23:38;;;;;;;19.63;14.07;;;;;;;19.72;55.57;98217.84;4953300;29;20236;-84
2021/11/24 00:26:05;;;;;;;20.43;14.20;;;;;;;20.06;55.62;98279.00;4942816;29;20279;-85
2021/11/24 00:28:31;;;;;;;20.10;15.17;;;;;;;19.66;55.78;98202.28;4968336;28;20208;-85
2021/11/24 00:30:58;;;;;;;18.27;14.53;;;;;;;18.88;55.73;98073.56;4953879;28;20236;-83
2021/11/24 00:33:26;;;;;;;17.67;14.70;;;;;;;18.92;55.86;98084.78;4940174;29;20239;-83
2021/11/24 00:35:53;;;;;;;22.90;15.37;;;;;;;19.77;55.68;98218.97;4954988;28;20557;-82
2021/11/24 00:38:20;;;;;;;16.60;13.90;;;;;;;20.09;55.58;98275.72;4939666;29;20263;-84
2021/11/24 00:40:46;;;;;;;19.20;13.40;;;;;;;19.70;55.86;98206.75;4935793;29;20205;-84
2021/11/24 00:43:13;;;;;;;16.17;13.87;;;;;;;20.42;55.94;98330.91;4941365;29;20228;-84
2021/11/24 00:45:40;;;;;;;21.60;14.80;;;;;;;18.39;55.27;98000.72;4951530;29;20650;-84
2021/11/24 00:48:06;;;;;;;18.60;14.60;;;;;;;19.59;55.44;98178.97;4938787;29;20204;-84
2021/11/24 00:50:33;;;;;;;17.97;14.17;;;;;;;19.74;55.49;98217.94;4951543;28;20232;-83
2021/11/24 00:53:00;;;;;;;18.00;15.07;;;;;;;20.20;55.39;98290.78;4935032;29;20753;-84
2021/11/24 00:55:26;;;;;;;20.93;15.70;;;;;;;19.88;55.69;98222.91;4941158;29;20475;-84
2021/11/24 00:57:53;;;;;;;19.30;15.60;;;;;;;20.23;56.01;98284.91;4937489;29;20653;-85
2021/11/24 01:00:19;;;;;;;20.73;16.43;;;;;;;19.70;55.46;98198.19;4954184;29;20267;-84
2021/11/24 01:02:46;;;;;;;20.20;16.50;;;;;;;18.93;55.47;98073.78;4944423;29;20228;-84
2021/11/24 01:05:13;;;;;;;21.17;16.40;;;;;;;19.38;55.21;98138.06;4950761;29;20435;-84
2021/11/24 01:07:39;;;;;;;23.57;17.50;;;;;;;19.96;55.59;98244.50;4918704;29;20209;-86
2021/11/24 01:10:06;;;;;;;19.73;16.53;;;;;;;19.98;55.33;98241.19;4951133;29;20678;-85
2021/11/24 01:12:34;;;;;;;24.20;17.83;;;;;;;19.68;55.46;98185.38;4937081;29;20279;-83
2021/11/24 01:15:00;;;;;;;20.60;16.80;;;;;;;19.71;55.31;98192.28;4922539;29;20259;-84
2021/11/24 01:17:27;;;;;;;22.03;17.87;;;;;;;19.90;55.56;98225.53;4950695;29;20247;-84
2021/11/24 01:19:54;;;;;;;22.20;17.70;;;;;;;20.28;55.58;98286.88;4950169;28;20268;-81
2021/11/24 01:22:20;;;;;;;21.20;17.37;;;;;;;20.01;55.34;98238.78;4935444;29;20259;-84
2021/11/24 01:24:47;;;;;;;19.77;16.80;;;;;;;19.91;55.21;98222.16;4947869;28;20209;-83
2021/11/24 01:27:14;;;;;;;22.87;17.60;;;;;;;20.39;55.52;98306.13;4953041;29;20256;-84
2021/11/24 01:29:40;;;;;;;20.93;16.63;;;;;;;19.79;55.51;98203.72;4950952;28;20220;-84
2021/11/24 01:32:07;;;;;;;19.77;15.70;;;;;;;19.39;55.44;98128.75;4950475;29;20276;-85
2021/11/24 01:34:34;;;;;;;19.87;16.97;;;;;;;20.04;55.56;98241.47;4937333;29;20212;-84
2021/11/24 01:37:01;;;;;;;18.67;15.77;;;;;;;19.92;55.32;98219.69;4935548;29;20232;-83
2021/11/24 01:39:27;;;;;;;22.53;16.50;;;;;;;19.78;55.17;98197.75;4948793;28;20231;-86
2021/11/24 01:41:54;;;;;;;18.10;16.00;;;;;;;19.74;55.39;98169.47;4925041;29;20228;-84
2021/11/24 01:44:24;;;;;;;19.97;16.80;;;;;;;20.27;55.21;98251.94;4945657;29;20259;-79
2021/11/24 01:46:59;;;;;;;19.57;16.03;;;;;;;20.47;55.19;98297.16;4920226;29;20237;-84
2021/11/24 01:49:26;;;;;;;19.93;15.30;;;;;;;20.13;55.24;98229.16;4939817;29;20294;-83
2021/11/24 01:51:52;;;;;;;19.17;16.90;;;;;;;20.28;55.39;98251.13;4922652;29;20200;-84
2021/11/24 01:54:19;;;;;;;20.27;16.60;;;;;;;19.68;55.22;98141.16;4948026;29;20232;-82
2021/11/24 01:56:46;;;;;;;23.47;16.40;;;;;;;20.02;55.31;98198.88;4949767;29;20204;-83
2021/11/24 01:59:12;;;;;;;18.50;15.73;;;;;;;20.35;55.11;98249.75;4952483;28;20212;-84
2021/11/24 02:01:41;;;;;;;22.47;16.30;;;;;;;20.15;55.06;98220.75;4936585;29;20320;-84
2021/11/24 02:04:09;;;;;;;18.57;15.20;;;;;;;19.93;55.11;98180.59;4934239;29;20698;-84
2021/11/24 02:06:38;;;;;;;18.33;14.80;;;;;;;20.50;55.03;98270.88;4949404;29;20241;-86
2021/11/24 02:09:05;;;;;;;16.47;14.73;;;;;;;20.04;55.00;98183.63;5000348;22;20779;-84
2021/11/24 02:11:37;;;;;;;20.33;16.30;;;;;;;20.13;54.89;98194.28;5043380;28;20280;-84
2021/11/24 02:14:04;;;;;;;19.00;15.53;;;;;;;20.57;54.95;98267.81;5054713;28;20248;-84
2021/11/24 02:16:31;;;;;;;18.00;15.10;;;;;;;20.50;54.76;98256.44;5044126;28;20320;-84
2021/11/24 02:19:01;;;;;;;16.83;14.93;;;;;;;20.08;54.78;98180.44;5037144;28;20228;-84
2021/11/24 02:21:28;;;;;;;18.90;15.97;;;;;;;20.42;54.74;98237.31;5025772;28;20240;-85
2021/11/24 02:23:54;;;;;;;18.37;16.17;;;;;;;20.37;54.69;98218.38;5022258;28;20525;-84
2021/11/24 02:26:22;;;;;;;19.23;15.77;;;;;;;19.20;54.71;98014.84;5032494;28;20206;-84
2021/11/24 02:28:49;;;;;;;19.90;16.33;;;;;;;20.60;54.51;98238.13;5012297;28;20628;-84
2021/11/24 02:31:20;;;;;;;19.57;16.30;;;;;;;20.61;54.72;98241.59;5027387;28;20248;-84
2021/11/24 02:33:50;;;;;;;19.43;15.63;;;;;;;19.56;54.67;98080.28;5046332;28;20603;-84
2021/11/24 02:36:17;;;;;;;18.07;15.43;;;;;;;17.94;54.41;97783.13;5036245;28;20209;-84
2021/11/24 02:38:44;;;;;;;20.17;16.53;;;;;;;20.06;54.32;98143.75;5026936;28;20275;-84
2021/11/24 02:41:11;;;;;;;17.83;15.90;;;;;;;20.63;54.50;98232.31;5017464;28;20287;-84
2021/11/24 02:43:38;;;;;;;17.67;15.80;;;;;;;20.14;54.64;98141.59;5027415;28;20278;-84
2021/11/24 02:46:04;;;;;;;19.40;16.33;;;;;;;20.39;54.52;98188.69;5036439;28;20295;-84
2021/11/24 02:48:31;;;;;;;19.30;16.30;;;;;;;19.97;54.26;98120.41;5045920;28;20225;-84
2021/11/24 02:50:57;;;;;;;19.83;16.57;;;;;;;20.63;54.43;98228.06;5006197;28;20314;-84
2021/11/24 02:53:28;;;;;;;18.63;16.63;;;;;;;20.64;54.22;98234.06;5047583;28;20618;-84
2021/11/24 02:55:54;;;;;;;18.33;16.33;;;;;;;20.43;54.19;98189.69;5012780;28;20595;-84
2021/11/24 02:58:21;;;;;;;19.83;16.50;;;;;;;20.45;54.03;98188.06;5043612;28;20292;-84
2021/11/24 03:00:48;;;;;;;19.33;16.40;;;;;;;19.92;54.45;98109.09;5026686;28;20251;-84
2021/11/24 03:03:15;;;;;;;18.60;16.30;;;;;;;20.48;54.27;98196.75;5012347;28;20286;-83
2021/11/24 03:05:41;;;;;;;19.43;16.27;;;;;;;20.27;54.27;98154.06;5027821;28;20320;-84
2021/11/24 03:08:08;;;;;;;19.03;16.00;;;;;;;20.64;54.21;98222.16;5012446;28;20284;-84
2021/11/24 03:10:35;;;;;;;19.63;16.87;;;;;;;20.65;54.21;98217.91;5042064;28;20301;-84
2021/11/24 03:13:01;;;;;;;20.57;17.00;;;;;;;20.64;54.12;98209.41;5041493;28;20284;-84
2021/11/24 03:15:28;;;;;;;20.40;17.37;;;;;;;20.65;54.04;98208.56;5045492;28;20231;-84
2021/11/24 03:17:55;;;;;;;18.67;16.63;;;;;;;20.65;53.99;98213.69;5028984;28;20251;-84
2021/11/24 03:20:25;;;;;;;20.30;17.30;;;;;;;20.66;54.24;98210.31;5046225;28;20290;-82
2021/11/24 03:22:52;;;;;;;22.37;18.27;;;;;;;20.60;54.13;98204.09;5045467;28;20286;-84
2021/11/24 03:25:19;;;;;;;20.47;17.47;;;;;;;20.66;54.13;98215.44;5023019;28;20259;-84
2021/11/24 03:27:45;;;;;;;20.67;17.27;;;;;;;20.67;54.03;98209.53;5012805;28;20232;-84
2021/11/24 03:30:15;;;;;;;20.27;17.17;;;;;;;20.66;54.08;98204.34;5028652;28;20315;-84
2021/11/24 03:32:42;;;;;;;22.50;17.93;;;;;;;20.44;53.87;98164.22;5028170;28;20196;-84
2021/11/24 03:35:12;;;;;;;21.47;18.73;;;;;;;20.66;53.78;98195.00;5029197;28;20201;-84
2021/11/24 03:37:38;;;;;;;20.47;17.83;;;;;;;20.67;53.98;98186.53;5028441;28;20209;-84
2021/11/24 03:40:06;;;;;;;20.80;18.17;;;;;;;20.46;53.76;98154.09;5033009;28;20252;-84
2021/11/24 03:42:33;;;;;;;20.50;17.63;;;;;;;20.48;53.79;98155.00;5050692;28;20271;-84
2021/11/24 03:45:00;;;;;;;21.03;18.40;;;;;;;20.47;53.82;98156.72;5019197;28;20300;-84
2021/11/24 03:47:27;;;;;;;22.97;19.03;;;;;;;20.68;53.63;98192.50;5032696;28;20710;-84
2021/11/24 03:49:53;;;;;;;21.83;19.10;;;;;;;20.46;53.73;98148.97;5032185;28;20229;-84
2021/11/24 03:52:20;;;;;;;22.67;19.53;;;;;;;20.43;54.19;98143.75;5048930;28;20240;-84
2021/11/24 03:54:46;;;;;;;21.53;18.43;;;;;;;20.67;53.60;98178.88;5032540;28;20201;-84
2021/11/24 03:57:13;;;;;;;22.13;18.03;;;;;;;20.67;53.63;98181.44;5051076;28;20203;-84
2021/11/24 03:59:39;;;;;;;24.37;19.57;;;;;;;20.67;53.54;98184.00;5036774;28;20304;-84
2021/11/24 04:02:13;;;;;;;23.37;19.77;;;;;;;20.68;53.99;98182.28;5022703;28;20444;-84
2021/11/24 04:04:41;;;;;;;20.93;18.67;;;;;;;20.68;53.60;98179.72;5026221;28;20247;-84
2021/11/24 04:07:07;;;;;;;23.83;19.93;;;;;;;19.96;53.46;98047.22;5016854;28;20236;-84
2021/11/24 04:09:34;;;;;;;21.63;19.33;;;;;;;20.68;53.59;98172.94;5032693;28;20267;-84
2021/11/24 04:12:01;;;;;;;23.63;19.83;;;;;;;18.82;53.50;97846.66;5027690;28;20300;-84
2021/11/24 04:14:27;;;;;;;22.00;19.13;;;;;;;20.68;53.43;98170.41;5003776;28;20288;-82
2021/11/24 04:16:54;;;;;;;21.40;18.73;;;;;;;20.68;53.43;98165.28;5049864;28;20233;-85
2021/11/24 04:19:21;;;;;;;24.73;20.37;;;;;;;20.00;53.45;98046.53;5041962;28;20221;-82
2021/11/24 04:21:47;;;;;;;22.00;19.17;;;;;;;20.38;53.35;98110.34;5020955;28;20589;-84
2021/11/24 04:24:14;;;;;;;22.30;19.80;;;;;;;20.33;53.12;98110.94;5030951;28;20256;-84
2021/11/24 04:26:40;;;;;;;24.33;19.67;;;;;;;20.25;53.14;98085.09;5016508;28;20741;-84
2021/11/24 04:29:07;;;;;;;22.77;19.77;;;;;;;20.69;53.49;98161.91;4995988;28;20225;-84
2021/11/24 04:31:35;;;;;;;23.50;20.20;;;;;;;20.70;53.50;98162.81;5049149;28;20574;-84
2021/11/24 04:34:02;;;;;;;23.47;19.77;;;;;;;20.33;53.09;98099.06;5049761;28;20709;-84
2021/11/24 04:36:39;;;;;;;22.00;19.37;;;;;;;20.69;52.87;98163.63;5012386;28;20204;-82
2021/11/24 04:39:06;;;;;;;22.23;19.03;;;;;;;20.45;53.27;98116.56;5042846;28;20261;-84
2021/11/24 04:41:32;;;;;;;22.83;20.17;;;;;;;20.69;53.26;98154.25;5046994;28;20243;-84
2021/11/24 04:43:59;;;;;;;22.00;19.53;;;;;;;20.31;53.32;98094.72;5033425;28;20256;-84
2021/11/24 04:46:26;;;;;;;25.60;20.80;;;;;;;18.13;53.17;97706.91;5023349;28;20649;-84
2021/11/24 04:48:52;;;;;;;24.83;20.93;;;;;;;20.69;53.19;98151.69;5019020;28;20312;-84
2021/11/24 04:51:19;;;;;;;22.90;19.83;;;;;;;20.38;53.10;98100.16;5027631;28;20205;-84
2021/11/24 04:53:46;;;;;;;24.77;21.20;;;;;;;20.30;53.17;98093.81;5002966;28;20728;-83
2021/11/24 04:56:13;;;;;;;24.07;20.40;;;;;;;20.49;52.85;98118.47;5020067;28;20288;-84
2021/11/24 04:58:50;;;;;;;23.03;19.57;;;;;;;20.48;53.60;98115.03;5036765;28;20296;-84
2021/11/24 05:01:16;;;;;;;22.57;19.90;;;;;;;20.70;52.88;98156.03;5016786;28;20215;-84
2021/11/24 05:03:43;;;;;;;25.37;20.47;;;;;;;20.36;52.45;98111.97;5027658;28;20224;-84
2021/11/24 05:06:11;;;;;;;24.40;20.50;;;;;;;20.70;53.01;98157.69;5031307;28;20201;-84
2021/11/24 05:08:39;;;;;;;22.43;19.60;;;;;;;20.28;53.01;98085.22;5020295;28;20264;-83
2021/11/24 05:11:07;;;;;;;24.57;20.77;;;;;;;20.70;52.74;98161.13;5027397;28;20259;-85
2021/11/24 05:13:34;;;;;;;22.43;19.63;;;;;;;20.70;52.86;98158.56;5046268;28;20582;-84
2021/11/24 05:16:04;;;;;;;23.47;20.00;;;;;;;20.70;52.74;98158.56;5048944;28;20343;-85
2021/11/24 05:18:40;;;;;;;25.03;20.53;;;;;;;20.71;52.93;98154.31;5046466;28;20240;-85
2021/11/24 05:21:17;;;;;;;22.70;19.60;;;;;;;20.71;52.82;98152.66;5018014;28;20217;-84
2021/11/24 05:23:44;;;;;;;23.20;19.80;;;;;;;20.71;52.87;98149.22;5044530;28;20221;-84
2021/11/24 05:26:11;;;;;;;22.07;19.27;;;;;;;20.30;52.61;98075.06;5028291;28;20285;-84
2021/11/24 05:28:37;;;;;;;22.83;20.23;;;;;;;20.71;52.89;98150.09;5026428;28;20311;-84
2021/11/24 05:31:04;;;;;;;23.40;19.47;;;;;;;20.73;52.75;98142.50;5028809;28;20232;-84
2021/11/24 05:33:31;;;;;;;23.10;20.13;;;;;;;20.72;52.87;98140.75;5047468;28;20642;-84
2021/11/24 05:35:57;;;;;;;24.13;20.33;;;;;;;20.70;52.74;98143.25;5012242;28;20201;-84
2021/11/24 05:38:24;;;;;;;25.63;19.70;;;;;;;20.67;52.07;98145.69;5030529;28;20235;-84
2021/11/24 05:40:51;;;;;;;23.00;20.10;;;;;;;20.48;52.81;98129.47;5046126;28;20291;-84
2021/11/24 05:43:21;;;;;;;23.97;21.13;;;;;;;20.65;52.29;98143.84;5013806;28;20726;-83
2021/11/24 05:48:21;;;;;;;24.37;20.83;;;;;;;19.75;52.73;97988.47;5047284;28;20566;-84
2021/11/24 05:50:48;;;;;;;25.57;19.87;;;;;;;20.62;52.49;98141.16;5012409;28;20622;-84
2021/11/24 05:53:17;;;;;;;24.67;20.63;;;;;;;17.53;52.82;97621.88;5048581;28;20563;-85
2021/11/24 05:55:44;;;;;;;24.33;19.73;;;;;;;19.47;52.51;97942.19;5029535;28;20228;-86
2021/11/24 05:58:11;;;;;;;23.60;20.80;;;;;;;20.39;52.57;98101.88;5012544;28;20306;-85
2021/11/24 06:00:38;;;;;;;23.77;20.23;;;;;;;20.62;52.73;98138.59;5012012;28;20205;-86
2021/11/24 06:03:05;;;;;;;44.73;35.30;;;;;;;20.61;52.50;98132.66;5045228;28;20201;-84
2021/11/24 06:05:32;;;;;;;71.80;55.87;;;;;;;20.61;47.72;98129.22;5006457;28;20656;-84
2021/11/24 06:07:58;;;;;;;67.07;52.77;;;;;;;20.04;47.42;98034.81;5012270;28;20232;-84
2021/11/24 06:10:25;;;;;;;61.53;48.80;;;;;;;20.27;47.76;98067.28;5029928;28;20264;-83
2021/11/24 06:12:52;;;;;;;62.50;48.60;;;;;;;19.57;48.51;97951.13;5021881;28;20657;-84
2021/11/24 06:15:18;;;;;;;64.37;50.80;;;;;;;20.59;48.90;98126.59;5027966;28;20260;-84
2021/11/24 06:17:46;;;;;;;61.53;50.37;;;;;;;20.29;49.29;98079.34;5049669;28;20258;-84
2021/11/24 06:20:13;;;;;;;61.37;50.13;;;;;;;20.59;49.33;98129.16;5022566;28;20259;-84
2021/11/24 06:22:40;;;;;;;62.70;49.13;;;;;;;20.59;49.46;98129.16;5002101;28;20240;-83
2021/11/24 06:25:07;;;;;;;60.37;47.43;;;;;;;19.88;49.68;98007.75;5035669;28;20384;-84
2021/11/24 06:27:34;;;;;;;60.43;46.80;;;;;;;20.60;49.87;98138.53;5018201;28;20297;-84
2021/11/24 06:30:01;;;;;;;54.30;44.50;;;;;;;19.17;49.66;97902.59;5045623;28;20248;-84
2021/11/24 06:32:27;;;;;;;49.73;41.87;;;;;;;20.60;49.91;98135.13;5031702;28;20284;-84
2021/11/24 06:34:54;;;;;;;52.27;42.47;;;;;;;20.60;50.08;98138.53;5025038;28;20197;-84
2021/11/24 06:37:20;;;;;;;53.53;41.80;;;;;;;19.55;50.04;97948.50;5044068;28;20240;-84
2021/11/24 06:39:47;;;;;;;49.50;39.97;;;;;;;20.61;50.27;98132.66;5022274;28;20275;-84
2021/11/24 06:42:14;;;;;;;49.43;40.30;;;;;;;20.60;50.03;98125.78;5044769;28;20228;-84
2021/11/24 06:44:40;;;;;;;50.23;38.80;;;;;;;20.61;50.18;98132.66;5016889;28;20313;-82
2021/11/24 06:47:07;;;;;;;47.50;38.67;;;;;;;19.67;49.82;97971.13;5022126;28;20288;-84
2021/11/24 06:49:33;;;;;;;48.23;37.93;;;;;;;18.76;50.34;97830.22;5023013;28;20251;-84
2021/11/24 06:52:00;;;;;;;44.53;35.60;;;;;;;20.61;50.57;98127.53;5040706;28;20628;-84
2021/11/24 06:54:26;;;;;;;42.67;36.07;;;;;;;20.61;51.42;98126.66;5044289;28;20319;-84
2021/11/24 06:56:59;;;;;;;42.90;35.30;;;;;;;19.86;50.54;97996.59;5045486;28;20197;-83
2021/11/24 06:59:26;;;;;;;43.17;35.00;;;;;;;20.62;50.59;98138.59;5026224;28;20221;-84
2021/11/24 07:01:52;;;;;;;41.63;34.10;;;;;;;20.62;50.48;98139.50;5045414;28;20201;-84
2021/11/24 07:04:19;;;;;;;40.63;33.57;;;;;;;19.50;50.64;97929.59;5029834;28;20229;-83
2021/11/24 07:06:46;;;;;;;40.13;33.40;;;;;;;19.37;50.84;97932.41;5022327;28;20194;-83
2021/11/24 07:09:14;;;;;;;37.03;31.93;;;;;;;20.26;50.70;98079.19;5023662;28;20236;-86
2021/11/24 07:11:41;;;;;;;39.40;33.30;;;;;;;20.33;50.74;98096.50;5024000;28;20202;-84
2021/11/24 07:14:08;;;;;;;35.80;31.57;;;;;;;20.62;50.86;98141.16;5027092;28;20255;-84
2021/11/24 07:16:36;;;;;;;34.90;29.93;;;;;;;20.46;51.05;98116.66;5024515;28;20228;-84
2021/11/24 07:19:03;;;;;;;35.27;29.83;;;;;;;20.00;50.97;98044.00;5024594;28;20220;-84
2021/11/24 07:21:29;;;;;;;34.37;29.20;;;;;;;20.63;50.82;98156.53;5009072;28;20206;-83
2021/11/24 07:23:56;;;;;;;36.17;30.30;;;;;;;20.21;51.12;98077.22;5022512;28;20236;-84
2021/11/24 07:26:22;;;;;;;35.10;29.10;;;;;;;20.63;50.91;98148.88;5019262;28;20233;-84
2021/11/24 07:28:49;;;;;;;34.63;28.70;;;;;;;19.80;50.95;98011.63;5009625;28;20311;-84
2021/11/24 07:31:16;;;;;;;30.63;26.37;;;;;;;20.64;51.10;98160.00;5003993;28;20655;-84
2021/11/24 07:33:42;;;;;;;31.23;26.97;;;;;;;19.62;51.20;97973.47;5024243;28;20197;-84
2021/11/24 07:36:09;;;;;;;32.13;27.33;;;;;;;20.42;51.07;98114.78;5021174;28;20251;-84
2021/11/24 07:38:35;;;;;;;35.97;29.33;;;;;;;20.64;50.96;98148.09;5016762;28;20256;-85
2021/11/24 07:41:02;;;;;;;32.57;26.27;;;;;;;19.80;51.07;98003.97;5024093;28;20240;-84
2021/11/24 07:43:29;;;;;;;31.00;26.37;;;;;;;19.42;50.91;97933.47;5008618;28;20206;-83
2021/11/24 07:45:55;;;;;;;53.53;41.73;;;;;;;20.50;48.34;98120.22;5018638;28;20229;-85
2021/11/24 07:48:24;;;;;;;39.63;31.77;;;;;;;20.64;45.14;98144.66;5008402;28;20301;-83
2021/11/24 07:50:50;;;;;;;36.17;26.13;;;;;;;19.80;41.49;97996.31;5019012;28;20585;-84
2021/11/24 07:53:17;;;;;;;28.60;20.70;;;;;;;20.40;40.47;98111.28;5003186;28;20677;-83
2021/11/24 07:55:43;;;;;;;23.87;17.10;;;;;;;18.88;38.91;97857.13;5017843;28;20244;-85
2021/11/24 07:58:12;;;;;;;22.60;16.10;;;;;;;20.51;38.13;98145.81;5013983;28;20197;-84
2021/11/24 08:00:39;;;;;;;25.17;16.77;;;;;;;20.46;37.76;98139.63;5024174;28;20235;-84
2021/11/24 08:03:05;;;;;;;36.23;22.27;;;;;;;20.11;37.78;98088.72;5010179;28;20729;-85
2021/11/24 08:05:32;;;;;;;32.97;24.73;;;;;;;20.13;39.04;98092.22;5025895;28;20232;-84
2021/11/24 08:07:59;;;;;;;32.73;24.83;;;;;;;20.44;39.56;98142.94;4997100;28;20224;-84
2021/11/24 08:10:25;;;;;;;30.50;23.57;;;;;;;20.33;39.95;98129.69;5007978;28;20263;-84
2021/11/24 08:12:52;;;;;;;30.20;23.23;;;;;;;20.19;40.94;98105.25;5005555;28;20743;-84
2021/11/24 08:15:19;;;;;;;32.07;22.53;;;;;;;20.20;41.67;98101.91;5057941;22;20259;-83
2021/11/24 08:17:45;;;;;;;28.63;21.33;;;;;;;20.25;42.07;98115.72;5010697;28;20291;-84
2021/11/24 08:20:12;;;;;;;26.67;21.50;;;;;;;19.87;42.93;98052.78;5012179;28;20602;-84
2021/11/24 08:22:39;;;;;;;27.87;20.80;;;;;;;19.23;43.44;97940.19;5027769;28;20236;-84
2021/11/24 08:25:07;;;;;;;26.83;19.70;;;;;;;20.01;43.61;98075.50;5034237;28;20216;-84
2021/11/24 08:27:35;;;;;;;26.77;20.37;;;;;;;19.93;43.96;98060.69;5023966;28;20243;-84
2021/11/24 08:30:03;;;;;;;26.07;20.53;;;;;;;19.78;44.30;98031.97;5037443;28;20236;-84
2021/11/24 08:32:30;;;;;;;25.80;19.13;;;;;;;20.39;44.95;98134.19;5038535;28;20220;-83
2021/11/24 08:34:56;;;;;;;22.10;18.17;;;;;;;20.08;44.80;98064.72;5029278;28;20248;-85
2021/11/24 08:37:23;;;;;;;20.57;16.93;;;;;;;19.20;45.30;97915.47;5027257;28;20233;-83
2021/11/24 08:39:49;;;;;;;20.57;16.77;;;;;;;19.94;44.99;98047.16;5045341;28;20233;-82
2021/11/24 08:42:16;;;;;;;20.20;16.23;;;;;;;19.82;45.27;98021.13;5018896;28;20700;-84
2021/11/24 08:44:43;;;;;;;21.13;16.87;;;;;;;20.41;46.13;98125.81;5043884;28;20224;-82
2021/11/24 08:47:10;;;;;;;19.17;15.40;;;;;;;19.93;45.80;98042.00;5027711;28;20291;-84
2021/11/24 08:49:37;;;;;;;17.27;14.23;;;;;;;19.87;45.91;98029.81;5030006;28;20197;-83
2021/11/24 08:52:03;;;;;;;17.17;14.20;;;;;;;19.74;45.86;97999.50;5034016;28;20218;-83
2021/11/24 08:54:33;;;;;;;17.33;13.77;;;;;;;19.25;45.99;97918.22;5039034;28;20220;-79
2021/11/24 08:56:59;;;;;;;15.97;13.80;;;;;;;20.07;46.02;98055.34;5022730;28;20193;-87
2021/11/24 08:59:26;;;;;;;16.77;13.37;;;;;;;19.96;46.17;98042.13;5046376;28;20638;-85
2021/11/24 09:01:52;;;;;;;15.67;13.03;;;;;;;19.94;46.71;98030.97;5020602;28;20201;-84
2021/11/24 09:04:19;;;;;;;15.27;12.43;;;;;;;20.02;46.63;98046.59;5033734;28;20210;-84
2021/11/24 09:06:46;;;;;;;15.17;12.40;;;;;;;20.04;46.74;98045.00;5037835;28;20741;-84
2021/11/24 09:09:12;;;;;;;16.23;12.80;;;;;;;20.15;46.82;98067.66;5043708;28;20659;-83
2021/11/24 09:11:39;;;;;;;14.67;12.07;;;;;;;20.06;46.84;98051.91;5040927;28;20939;-86
2021/11/24 09:14:05;;;;;;;15.70;12.70;;;;;;;19.91;46.76;98024.06;5038450;28;20604;-82
2021/11/24 09:16:32;;;;;;;16.57;12.03;;;;;;;20.26;47.09;98075.78;5020308;28;20220;-84
2021/11/24 09:18:59;;;;;;;13.20;11.70;;;;;;;20.24;47.30;98072.25;5048599;28;20253;-82
2021/11/24 09:21:25;;;;;;;17.40;12.50;;;;;;;19.88;45.27;98012.84;5048930;28;20204;-83
2021/11/24 09:23:53;;;;;;;14.07;11.70;;;;;;;20.23;45.01;98066.31;5011958;28;20303;-82
2021/11/24 09:26:26;;;;;;;13.53;11.20;;;;;;;19.91;45.15;98008.75;5028991;28;20251;-81
2021/11/24 09:28:53;;;;;;;14.47;12.23;;;;;;;19.89;42.61;98000.16;5048930;28;20234;-82
2021/11/24 09:31:20;;;;;;;13.83;11.87;;;;;;;20.09;41.74;98034.19;5036799;28;20228;-83
2021/11/24 09:33:46;;;;;;;15.77;11.13;;;;;;;20.16;42.29;98040.47;5033664;28;20215;-82
2021/11/24 09:36:13;;;;;;;14.03;11.60;;;;;;;20.09;42.69;98020.53;5043985;28;20307;-83
2021/11/24 09:38:40;;;;;;;11.37;10.17;;;;;;;19.10;43.38;97867.44;5047648;28;20235;-83
2021/11/24 09:41:08;;;;;;;13.50;10.40;;;;;;;20.12;43.54;98025.78;5025108;28;20196;-82
2021/11/24 09:43:41;;;;;;;11.97;9.87;;;;;;;20.32;44.16;98061.59;5024635;28;20270;-80
2021/11/24 09:46:07;;;;;;;11.50;10.17;;;;;;;20.09;43.91;98028.19;5029641;28;20319;-81
2021/11/24 09:48:34;;;;;;;11.00;9.83;;;;;;;20.10;44.69;98028.25;5033978;28;20205;-82
2021/11/24 09:51:01;;;;;;;11.00;9.90;;;;;;;20.08;44.81;98027.34;5014236;28;20312;-84
2021/11/24 09:53:28;;;;;;;10.67;9.57;;;;;;;19.80;44.98;97963.16;5011557;28;20722;-82
2021/11/24 09:55:55;;;;;;;12.23;8.53;;;;;;;19.89;44.87;97973.75;5019481;28;20244;-83
2021/11/24 09:58:21;;;;;;;9.73;8.73;;;;;;;19.85;45.42;97962.59;5016272;28;20262;-83
2021/11/24 10:00:48;;;;;;;10.30;9.20;;;;;;;19.98;45.58;97985.25;5032849;28;20288;-83
2021/11/24 10:03:15;;;;;;;9.63;8.10;;;;;;;19.90;45.67;97967.88;5015365;28;20535;-81
2021/11/24 10:05:42;;;;;;;8.77;7.87;;;;;;;20.29;45.93;98033.38;5020155;28;20220;-83
2021/11/24 10:08:10;;;;;;;8.90;8.00;;;;;;;20.12;46.03;97996.03;5029960;28;20672;-84
2021/11/24 10:10:36;;;;;;;8.93;8.03;;;;;;;20.08;46.13;97986.53;5043011;28;20673;-83
2021/11/24 10:13:03;;;;;;;8.70;7.80;;;;;;;20.09;46.33;97979.72;5026504;28;20746;-82
2021/11/24 10:15:34;;;;;;;9.07;7.83;;;;;;;19.94;46.36;97962.97;5032079;28;20302;-82
2021/11/24 10:18:26;;;;;;;8.17;7.27;;;;;;;20.46;46.58;98040.06;5041200;28;20254;-83
2021/11/24 10:20:55;;;;;;;9.33;7.63;;;;;;;20.14;46.59;97971.50;5043363;28;20197;-84
2021/11/24 10:23:35;;;;;;;8.53;7.40;;;;;;;20.48;46.73;98027.34;5025249;28;20244;-83
2021/11/24 10:26:27;;;;;;;9.13;7.10;;;;;;;20.48;46.87;98027.34;5027489;28;20465;-82
2021/11/24 10:29:15;;;;;;;8.20;7.40;;;;;;;20.15;46.79;97957.91;5043302;28;20628;-84
2021/11/24 10:31:43;;;;;;;7.53;6.77;;;;;;;19.82;47.12;97893.59;5010234;28;20205;-83
2021/11/24 10:34:38;;;;;;;8.17;7.17;;;;;;;20.49;46.92;98021.44;5006660;28;20205;-83
2021/11/24 10:37:12;;;;;;;9.00;6.50;;;;;;;19.33;47.05;97815.00;5027998;28;20196;-83
2021/11/24 10:39:48;;;;;;;7.03;6.13;;;;;;;20.35;47.09;97987.69;5040254;28;20206;-82
2021/11/24 10:42:22;;;;;;;7.53;6.07;;;;;;;20.50;47.01;98005.31;5025776;28;20208;-82
2021/11/24 10:44:53;;;;;;;6.83;6.13;;;;;;;20.07;47.08;97925.22;5058430;28;20732;-83
2021/11/24 10:47:20;;;;;;;7.00;6.30;;;;;;;19.92;47.22;97897.38;5009145;28;20201;-83
2021/11/24 10:49:57;;;;;;;6.80;6.10;;;;;;;19.73;47.06;97866.81;5051318;28;20232;-85
2021/11/24 10:52:24;;;;;;;7.07;6.37;;;;;;;20.50;47.38;97990.88;5031021;28;20196;-82
2021/11/24 10:55:10;;;;;;;6.97;6.13;;;;;;;19.91;47.33;97888.00;5045927;28;20219;-83
2021/11/24 10:57:41;;;;;;;7.23;5.73;;;;;;;20.51;47.35;97981.50;5006768;28;20576;-82
2021/11/24 11:00:16;;;;;;;5.97;5.47;;;;;;;19.95;47.49;97880.53;5024355;28;20205;-82
2021/11/24 11:02:43;;;;;;;6.83;5.90;;;;;;;20.02;47.48;97885.88;5020894;28;20231;-80
2021/11/24 11:05:22;;;;;;;6.70;5.60;;;;;;;20.52;47.85;97961.16;5022028;28;20217;-79
2021/11/24 11:07:48;;;;;;;6.90;5.20;;;;;;;20.53;47.90;97957.81;5047134;28;20199;-84
2021/11/24 11:10:17;;;;;;;9.77;5.80;;;;;;;20.19;48.26;97885.78;5062331;28;20232;-84
2021/11/24 11:13:06;;;;;;;7.10;4.93;;;;;;;20.23;48.29;97889.34;5044247;28;20763;-86
2021/11/24 11:15:40;;;;;;;12.87;5.80;;;;;;;20.18;48.79;97875.50;5055273;28;20254;-83
2021/11/24 11:18:28;;;;;;;8.83;4.67;;;;;;;20.53;49.10;97936.50;5010893;28;20200;-83
2021/11/24 11:21:09;;;;;;;9.10;4.50;;;;;;;20.31;49.40;97896.47;5058234;28;20201;-84
2021/11/24 11:23:37;;;;;;;9.00;5.33;;;;;;;20.14;49.45;97863.44;5053532;28;20200;-85
2021/11/24 11:26:15;;;;;;;11.83;5.27;;;;;;;20.33;49.39;97899.09;5038397;28;20699;-84